Time;durP1;ratioP1;P1;durP2;ratioP2;P2;SDS_P1;SDS_P2;PMS_P1;PMS_P2;Temp;Humidity;BMP_temperature;BMP_pressure;BME280_temperature;BME280_humidity;BME280_pressure;Samples;Min_cycle;Max_cycle;Signal;HPM_P1;HPM_P2
2021/01/25 00:00:59;;;;;;;9.20;3.63;;;;;;;;;;4919211;29;20044;-84
2021/01/25 00:03:25;;;;;;;5.82;3.20;;;;;;;;;;4919397;29;20056;-83
2021/01/25 00:05:52;;;;;;;10.27;4.25;;;;;;;;;;4920472;29;20449;-83
2021/01/25 00:08:18;;;;;;;8.40;4.40;;;;;;;;;;4920266;29;20454;-83
2021/01/25 00:10:44;;;;;;;8.35;4.55;;;;;;;;;;4919918;29;20084;-83
2021/01/25 00:13:10;;;;;;;7.18;3.75;;;;;;;;;;4922359;29;20044;-83
2021/01/25 00:15:36;;;;;;;7.82;3.28;;;;;;;;;;4919987;29;20056;-83
2021/01/25 00:18:02;;;;;;;10.85;5.07;;;;;;;;;;4935409;29;20089;-83
2021/01/25 00:20:28;;;;;;;8.40;4.18;;;;;;;;;;4919227;29;20485;-83
2021/01/25 00:22:55;;;;;;;9.18;4.75;;;;;;;;;;4920156;29;20466;-84
2021/01/25 00:25:21;;;;;;;8.00;3.72;;;;;;;;;;4928361;29;20051;-83
2021/01/25 00:27:47;;;;;;;6.55;3.60;;;;;;;;;;4924830;29;20056;-84
2021/01/25 00:30:16;;;;;;;6.97;3.90;;;;;;;;;;4930261;29;20385;-83
2021/01/25 00:32:42;;;;;;;8.57;4.82;;;;;;;;;;4908548;29;20048;-83
2021/01/25 00:35:09;;;;;;;9.45;3.78;;;;;;;;;;4927354;29;20108;-83
2021/01/25 00:37:35;;;;;;;8.48;3.72;;;;;;;;;;4930322;29;20051;-83
2021/01/25 00:40:02;;;;;;;5.18;3.35;;;;;;;;;;4920004;29;20056;-83
2021/01/25 00:42:28;;;;;;;8.48;3.90;;;;;;;;;;4919298;29;20143;-83
2021/01/25 00:44:54;;;;;;;9.25;4.15;;;;;;;;;;4919561;29;20052;-84
2021/01/25 00:47:20;;;;;;;7.57;4.00;;;;;;;;;;4919613;29;20481;-84
2021/01/25 00:49:46;;;;;;;6.65;3.80;;;;;;;;;;4919377;29;20562;-83
2021/01/25 00:52:12;;;;;;;6.95;3.67;;;;;;;;;;4919344;29;20052;-83
2021/01/25 00:54:38;;;;;;;5.97;3.38;;;;;;;;;;4919221;29;20044;-83
2021/01/25 00:57:05;;;;;;;6.88;3.67;;;;;;;;;;4919531;29;20100;-83
2021/01/25 00:59:31;;;;;;;6.35;3.60;;;;;;;;;;4919641;29;20048;-83
2021/01/25 01:01:57;;;;;;;8.75;3.83;;;;;;;;;;4922585;29;20057;-83
2021/01/25 01:04:23;;;;;;;6.15;3.28;;;;;;;;;;4922147;29;20090;-84
2021/01/25 01:06:49;;;;;;;8.43;3.28;;;;;;;;;;4922580;29;20048;-83
2021/01/25 01:09:15;;;;;;;8.00;3.65;;;;;;;;;;4923134;29;20485;-83
2021/01/25 01:11:41;;;;;;;6.97;3.25;;;;;;;;;;4923113;29;20048;-82
2021/01/25 01:14:08;;;;;;;5.60;3.65;;;;;;;;;;4922460;29;20048;-83
2021/01/25 01:16:34;;;;;;;7.35;4.32;;;;;;;;;;4922781;29;20059;-83
2021/01/25 01:19:00;;;;;;;6.28;3.70;;;;;;;;;;4922204;29;20048;-83
2021/01/25 01:21:26;;;;;;;6.93;3.25;;;;;;;;;;4923121;29;20510;-83
2021/01/25 01:23:52;;;;;;;5.65;3.90;;;;;;;;;;4922522;29;20477;-83
2021/01/25 01:26:18;;;;;;;8.65;3.40;;;;;;;;;;4922454;29;20048;-84
2021/01/25 01:28:44;;;;;;;6.70;3.30;;;;;;;;;;4924868;29;20044;-84
2021/01/25 01:31:11;;;;;;;8.82;3.72;;;;;;;;;;4940950;29;20111;-83
2021/01/25 01:33:37;;;;;;;5.78;3.20;;;;;;;;;;4940772;29;20051;-84
2021/01/25 01:36:04;;;;;;;6.80;3.22;;;;;;;;;;4930018;29;20059;-83
2021/01/25 01:38:30;;;;;;;7.88;3.90;;;;;;;;;;4922334;29;20052;-83
2021/01/25 01:40:57;;;;;;;6.68;4.05;;;;;;;;;;4921981;29;20055;-84
2021/01/25 01:43:22;;;;;;;7.05;3.50;;;;;;;;;;4922122;29;20067;-83
2021/01/25 01:45:48;;;;;;;6.32;3.28;;;;;;;;;;4922177;29;20047;-83
2021/01/25 01:48:15;;;;;;;8.95;3.45;;;;;;;;;;4922388;29;20134;-83
2021/01/25 01:50:41;;;;;;;6.57;3.05;;;;;;;;;;4922400;29;20181;-82
2021/01/25 01:53:07;;;;;;;7.93;4.32;;;;;;;;;;4921974;29;20055;-82
2021/01/25 01:55:33;;;;;;;9.80;5.07;;;;;;;;;;4921846;29;20060;-83
2021/01/25 01:58:03;;;;;;;8.32;4.47;;;;;;;;;;4921128;29;20501;-83
2021/01/25 02:00:29;;;;;;;11.90;4.80;;;;;;;;;;4921258;29;20052;-83
2021/01/25 02:02:55;;;;;;;7.40;3.75;;;;;;;;;;4921400;29;20056;-83
2021/01/25 02:05:23;;;;;;;5.70;3.70;;;;;;;;;;4921669;29;20054;-83
2021/01/25 02:07:50;;;;;;;8.85;3.90;;;;;;;;;;4919018;29;20044;-83
2021/01/25 02:10:17;;;;;;;7.07;3.80;;;;;;;;;;4921162;29;20509;-83
2021/01/25 02:12:44;;;;;;;6.45;3.78;;;;;;;;;;4920495;29;20052;-82
2021/01/25 02:15:12;;;;;;;7.80;3.45;;;;;;;;;;4921315;29;20056;-83
2021/01/25 02:17:38;;;;;;;7.88;3.42;;;;;;;;;;4920545;29;20044;-83
2021/01/25 02:20:06;;;;;;;5.38;3.40;;;;;;;;;;4921375;29;20386;-83
2021/01/25 02:23:09;;;;;;;5.80;3.05;;;;;;;;;;4920624;29;20062;-82
2021/01/25 02:25:43;;;;;;;7.97;3.10;;;;;;;;;;4901312;29;20055;-82
2021/01/25 02:28:10;;;;;;;7.82;3.20;;;;;;;;;;4921870;29;20048;-82
2021/01/25 02:30:36;;;;;;;6.63;3.25;;;;;;;;;;4920954;29;20056;-83
2021/01/25 02:33:03;;;;;;;5.25;2.85;;;;;;;;;;4920478;29;20048;-83
2021/01/25 02:35:29;;;;;;;8.23;3.58;;;;;;;;;;4920784;29;20493;-83
2021/01/25 02:37:56;;;;;;;9.30;3.90;;;;;;;;;;4935785;29;20489;-83
2021/01/25 02:40:23;;;;;;;11.27;4.97;;;;;;;;;;4940081;29;20056;-83
2021/01/25 02:42:52;;;;;;;7.40;3.83;;;;;;;;;;4940386;29;20051;-82
2021/01/25 02:45:20;;;;;;;6.97;3.53;;;;;;;;;;4940235;29;20051;-82
2021/01/25 02:47:47;;;;;;;5.50;3.03;;;;;;;;;;4940520;29;20412;-83
2021/01/25 02:50:13;;;;;;;5.05;2.85;;;;;;;;;;4939973;29;20060;-82
2021/01/25 02:52:39;;;;;;;6.85;3.25;;;;;;;;;;4938947;29;20051;-83
2021/01/25 02:55:06;;;;;;;7.22;3.20;;;;;;;;;;4939579;29;20102;-83
2021/01/25 02:57:34;;;;;;;6.13;3.28;;;;;;;;;;4939556;29;20047;-82
2021/01/25 03:00:00;;;;;;;7.07;3.45;;;;;;;;;;4939516;29;20461;-82
2021/01/25 03:02:27;;;;;;;6.88;3.40;;;;;;;;;;4938898;29;20052;-82
2021/01/25 03:04:53;;;;;;;6.80;3.35;;;;;;;;;;4939318;29;20051;-82
2021/01/25 03:07:19;;;;;;;5.45;3.17;;;;;;;;;;4938930;29;20055;-82
2021/01/25 03:09:45;;;;;;;7.78;3.20;;;;;;;;;;4939329;29;20058;-82
2021/01/25 03:12:11;;;;;;;6.93;3.25;;;;;;;;;;4939175;29;20671;-83
2021/01/25 03:14:43;;;;;;;5.85;3.15;;;;;;;;;;4938917;29;20044;-82
2021/01/25 03:17:09;;;;;;;6.85;3.35;;;;;;;;;;4938968;29;20397;-82
2021/01/25 03:19:36;;;;;;;6.88;2.90;;;;;;;;;;4938967;29;20169;-82
2021/01/25 03:22:02;;;;;;;5.25;2.67;;;;;;;;;;4939162;29;20052;-81
2021/01/25 03:24:28;;;;;;;8.32;3.15;;;;;;;;;;4938130;29;20048;-82
2021/01/25 03:26:54;;;;;;;4.63;2.85;;;;;;;;;;4938960;29;20103;-82
2021/01/25 03:29:20;;;;;;;8.43;4.22;;;;;;;;;;4939701;29;20130;-82
2021/01/25 03:31:46;;;;;;;6.50;2.97;;;;;;;;;;4939031;29;20048;-82
2021/01/25 03:34:12;;;;;;;9.77;3.67;;;;;;;;;;4938895;29;20103;-81
2021/01/25 03:36:39;;;;;;;5.00;2.78;;;;;;;;;;4939006;29;20051;-81
2021/01/25 03:39:06;;;;;;;8.10;2.70;;;;;;;;;;4931112;29;20100;-82
2021/01/25 03:41:32;;;;;;;4.68;2.53;;;;;;;;;;4938852;29;20047;-82
2021/01/25 03:43:58;;;;;;;5.13;2.28;;;;;;;;;;4939036;29;20503;-82
2021/01/25 03:46:24;;;;;;;4.72;2.40;;;;;;;;;;4938766;29;20051;-82
2021/01/25 03:48:51;;;;;;;5.45;2.15;;;;;;;;;;4938820;29;20058;-82
2021/01/25 03:51:19;;;;;;;3.40;2.13;;;;;;;;;;4938871;29;20075;-82
2021/01/25 03:53:45;;;;;;;5.43;2.40;;;;;;;;;;4938153;29;20053;-82
2021/01/25 03:56:11;;;;;;;4.05;2.90;;;;;;;;;;4938142;29;20083;-82
2021/01/25 03:58:37;;;;;;;4.70;2.20;;;;;;;;;;4938125;29;20512;-82
2021/01/25 04:01:03;;;;;;;6.13;2.58;;;;;;;;;;4938413;29;20062;-82
2021/01/25 04:03:29;;;;;;;4.85;2.33;;;;;;;;;;4938628;29;20051;-83
2021/01/25 04:05:55;;;;;;;4.90;2.78;;;;;;;;;;4938169;29;20056;-82
2021/01/25 04:08:21;;;;;;;6.32;3.00;;;;;;;;;;4938762;29;20056;-82
2021/01/25 04:10:48;;;;;;;4.53;2.20;;;;;;;;;;4938629;29;20063;-82
2021/01/25 04:13:14;;;;;;;4.47;2.50;;;;;;;;;;4938064;29;20051;-82
2021/01/25 04:15:40;;;;;;;4.35;2.40;;;;;;;;;;4938249;29;20082;-82
2021/01/25 04:18:06;;;;;;;5.43;2.50;;;;;;;;;;4938848;29;20059;-82
2021/01/25 04:20:32;;;;;;;6.00;2.55;;;;;;;;;;4939090;29;20424;-82
2021/01/25 04:22:58;;;;;;;4.70;2.58;;;;;;;;;;4938588;29;20048;-82
2021/01/25 04:25:25;;;;;;;4.32;2.40;;;;;;;;;;4938013;29;20075;-82
2021/01/25 04:27:52;;;;;;;5.40;2.70;;;;;;;;;;4939041;29;20055;-82
2021/01/25 04:30:18;;;;;;;7.72;2.95;;;;;;;;;;4938919;29;20489;-82
2021/01/25 04:32:44;;;;;;;3.58;2.28;;;;;;;;;;4938862;29;20059;-82
2021/01/25 04:35:12;;;;;;;5.78;3.00;;;;;;;;;;4939517;29;20480;-82
2021/01/25 04:37:38;;;;;;;4.28;2.22;;;;;;;;;;4942579;29;20051;-82
2021/01/25 04:40:07;;;;;;;7.00;2.40;;;;;;;;;;4942500;29;20056;-82
2021/01/25 04:42:33;;;;;;;4.72;2.33;;;;;;;;;;4942136;29;20103;-82
2021/01/25 04:45:01;;;;;;;7.82;2.97;;;;;;;;;;4942344;29;20044;-81
2021/01/25 04:47:27;;;;;;;5.82;2.63;;;;;;;;;;4943055;29;20048;-82
2021/01/25 04:49:53;;;;;;;6.68;2.53;;;;;;;;;;4942266;29;20055;-82
2021/01/25 04:52:20;;;;;;;9.02;3.80;;;;;;;;;;4936623;29;20056;-83
2021/01/25 04:54:47;;;;;;;4.70;2.83;;;;;;;;;;4923033;29;20052;-82
2021/01/25 04:57:14;;;;;;;5.45;2.85;;;;;;;;;;4923729;29;20454;-83
2021/01/25 04:59:41;;;;;;;7.50;3.45;;;;;;;;;;4923724;29;20051;-83
2021/01/25 05:02:08;;;;;;;5.93;3.17;;;;;;;;;;4922187;29;20059;-83
2021/01/25 05:04:34;;;;;;;5.88;2.65;;;;;;;;;;4922522;29;20056;-82
2021/01/25 05:07:00;;;;;;;6.88;3.35;;;;;;;;;;4923108;29;20064;-83
2021/01/25 05:09:26;;;;;;;5.70;2.63;;;;;;;;;;4922082;29;20070;-83
2021/01/25 05:11:58;;;;;;;7.88;3.10;;;;;;;;;;4922717;29;20508;-83
2021/01/25 05:14:24;;;;;;;8.10;2.75;;;;;;;;;;4922908;29;20048;-83
2021/01/25 05:16:51;;;;;;;5.10;2.78;;;;;;;;;;4921832;29;20052;-82
2021/01/25 05:19:17;;;;;;;6.13;2.95;;;;;;;;;;4922239;29;20048;-83
2021/01/25 05:21:44;;;;;;;5.40;2.58;;;;;;;;;;4922692;29;20493;-83
2021/01/25 05:24:12;;;;;;;5.13;2.85;;;;;;;;;;4922731;29;20083;-83
2021/01/25 05:26:51;;;;;;;4.38;2.22;;;;;;;;;;4922095;29;20052;-83
2021/01/25 05:29:22;;;;;;;7.07;3.00;;;;;;;;;;4922485;29;20056;-82
2021/01/25 05:31:50;;;;;;;5.40;2.92;;;;;;;;;;4921729;29;20052;-83
2021/01/25 05:34:18;;;;;;;4.65;2.72;;;;;;;;;;4921566;29;20051;-82
2021/01/25 05:36:45;;;;;;;6.85;2.92;;;;;;;;;;4922079;29;20056;-82
2021/01/25 05:39:14;;;;;;;6.53;3.03;;;;;;;;;;4922040;29;20059;-82
2021/01/25 05:41:40;;;;;;;7.82;3.67;;;;;;;;;;4922620;29;20108;-83
2021/01/25 05:44:14;;;;;;;5.05;2.92;;;;;;;;;;4922352;29;20059;-83
2021/01/25 05:46:40;;;;;;;5.47;3.08;;;;;;;;;;4921862;29;20048;-83
2021/01/25 05:49:06;;;;;;;5.80;3.83;;;;;;;;;;4921603;29;20052;-83
2021/01/25 05:51:33;;;;;;;9.93;4.10;;;;;;;;;;4921714;29;20485;-83
2021/01/25 05:54:01;;;;;;;11.52;7.70;;;;;;;;;;4922296;29;20434;-83
2021/01/25 05:56:27;;;;;;;9.20;6.57;;;;;;;;;;4922227;29;20049;-83
2021/01/25 05:58:53;;;;;;;7.20;4.07;;;;;;;;;;4922018;29;20075;-83
2021/01/25 06:01:22;;;;;;;6.00;3.67;;;;;;;;;;4922133;29;20059;-84
2021/01/25 06:03:48;;;;;;;6.22;3.35;;;;;;;;;;4922522;29;20077;-84
2021/01/25 06:06:18;;;;;;;5.65;3.20;;;;;;;;;;4922343;29;20044;-84
2021/01/25 06:08:56;;;;;;;5.60;3.38;;;;;;;;;;4903241;29;20064;-83
2021/01/25 06:11:23;;;;;;;7.60;3.80;;;;;;;;;;4904032;29;20060;-83
2021/01/25 06:13:54;;;;;;;5.10;3.40;;;;;;;;;;4922048;29;20442;-83
2021/01/25 06:16:22;;;;;;;6.57;3.78;;;;;;;;;;4921965;29;20052;-84
2021/01/25 06:18:48;;;;;;;11.13;5.13;;;;;;;;;;4922038;29;20067;-83
2021/01/25 06:21:18;;;;;;;8.32;6.20;;;;;;;;;;4922341;29;20051;-83
2021/01/25 06:23:44;;;;;;;7.65;5.32;;;;;;;;;;4922171;29;20111;-83
2021/01/25 06:26:12;;;;;;;9.90;4.30;;;;;;;;;;4922585;29;20052;-83
2021/01/25 06:28:40;;;;;;;7.85;4.03;;;;;;;;;;4922046;29;20055;-84
2021/01/25 06:31:06;;;;;;;9.00;4.75;;;;;;;;;;4922280;29;20056;-83
2021/01/25 06:33:37;;;;;;;9.95;4.05;;;;;;;;;;4920756;29;20059;-83
2021/01/25 06:36:07;;;;;;;4.97;3.28;;;;;;;;;;4922868;29;20055;-83
2021/01/25 06:38:34;;;;;;;6.63;3.10;;;;;;;;;;4923566;29;20060;-84
2021/01/25 06:41:09;;;;;;;4.47;1.95;;;;;;;;;;4923368;29;20052;-84
2021/01/25 06:43:35;;;;;;;4.30;2.03;;;;;;;;;;4940935;29;20056;-83
2021/01/25 06:46:02;;;;;;;5.32;2.42;;;;;;;;;;4941821;29;20067;-84
2021/01/25 06:48:28;;;;;;;4.55;2.60;;;;;;;;;;4941582;29;20047;-83
2021/01/25 06:50:54;;;;;;;4.22;1.98;;;;;;;;;;4931153;29;20048;-83
2021/01/25 06:53:26;;;;;;;3.58;1.83;;;;;;;;;;4922009;29;20111;-83
2021/01/25 06:55:57;;;;;;;4.15;2.30;;;;;;;;;;4922740;29;20446;-83
2021/01/25 06:58:25;;;;;;;3.75;1.70;;;;;;;;;;4922947;29;20059;-84
2021/01/25 07:00:53;;;;;;;2.40;1.50;;;;;;;;;;4930806;29;20094;-84
2021/01/25 07:03:20;;;;;;;2.58;1.40;;;;;;;;;;4927508;29;20043;-83
2021/01/25 07:05:49;;;;;;;4.35;1.90;;;;;;;;;;4934223;29;20505;-84
2021/01/25 07:08:17;;;;;;;3.13;1.90;;;;;;;;;;4941539;29;20086;-85
2021/01/25 07:10:50;;;;;;;3.83;1.65;;;;;;;;;;4937008;29;20044;-85
2021/01/25 07:13:17;;;;;;;5.13;2.75;;;;;;;;;;4941912;29;20104;-85
2021/01/25 07:15:43;;;;;;;4.93;2.60;;;;;;;;;;4941267;29;20055;-84
2021/01/25 07:18:10;;;;;;;12.45;4.03;;;;;;;;;;4941972;29;20055;-83
2021/01/25 07:20:36;;;;;;;5.70;3.20;;;;;;;;;;4931836;29;20052;-83
2021/01/25 07:23:04;;;;;;;7.07;3.13;;;;;;;;;;4929417;29;20074;-84
2021/01/25 07:25:30;;;;;;;4.25;2.38;;;;;;;;;;4930341;29;20048;-84
2021/01/25 07:28:01;;;;;;;5.47;2.78;;;;;;;;;;4922934;29;20090;-84
2021/01/25 07:30:31;;;;;;;6.00;2.75;;;;;;;;;;4924511;29;20099;-84
2021/01/25 07:33:01;;;;;;;5.45;2.67;;;;;;;;;;4921141;29;20437;-83
2021/01/25 07:35:28;;;;;;;18.60;3.88;;;;;;;;;;4922008;29;20133;-84
2021/01/25 07:37:54;;;;;;;8.02;4.28;;;;;;;;;;4924507;29;20044;-83
2021/01/25 07:40:22;;;;;;;6.63;2.47;;;;;;;;;;4922319;29;20063;-84
2021/01/25 07:42:48;;;;;;;3.67;2.35;;;;;;;;;;4916879;29;20546;-85
2021/01/25 07:45:15;;;;;;;8.25;3.70;;;;;;;;;;4917698;29;20052;-85
2021/01/25 07:47:44;;;;;;;4.22;2.67;;;;;;;;;;4920564;29;20056;-85
2021/01/25 07:50:11;;;;;;;4.38;2.67;;;;;;;;;;4929887;29;20052;-84
2021/01/25 07:52:38;;;;;;;4.38;2.38;;;;;;;;;;4925697;29;20051;-84
2021/01/25 07:55:13;;;;;;;4.30;1.98;;;;;;;;;;4921459;29;20048;-84
2021/01/25 07:57:39;;;;;;;3.97;2.30;;;;;;;;;;4920777;29;20479;-84
2021/01/25 08:00:17;;;;;;;3.88;2.15;;;;;;;;;;4921203;29;20298;-83
2021/01/25 08:02:44;;;;;;;4.40;2.03;;;;;;;;;;4937566;29;20572;-84
2021/01/25 08:05:12;;;;;;;3.63;1.83;;;;;;;;;;4940345;29;20095;-84
2021/01/25 08:07:39;;;;;;;3.80;1.90;;;;;;;;;;4939590;29;20056;-84
2021/01/25 08:10:06;;;;;;;2.67;1.85;;;;;;;;;;4932120;29;20052;-85
2021/01/25 08:12:32;;;;;;;3.15;1.70;;;;;;;;;;4929122;29;20063;-84
2021/01/25 08:15:04;;;;;;;4.22;1.73;;;;;;;;;;4920396;29;20056;-84
2021/01/25 08:17:33;;;;;;;6.45;1.90;;;;;;;;;;4922604;29;20145;-84
2021/01/25 08:20:02;;;;;;;5.40;1.92;;;;;;;;;;4920605;29;20477;-84
2021/01/25 08:22:36;;;;;;;3.33;1.70;;;;;;;;;;4927061;29;20048;-85
2021/01/25 08:25:03;;;;;;;3.35;1.60;;;;;;;;;;4924192;29;20405;-85
2021/01/25 08:27:32;;;;;;;2.30;1.45;;;;;;;;;;4926641;29;20112;-83
2021/01/25 08:30:01;;;;;;;6.65;1.67;;;;;;;;;;4921497;29;20111;-85
2021/01/25 08:32:29;;;;;;;3.45;2.15;;;;;;;;;;4921576;29;20542;-84
2021/01/25 08:34:58;;;;;;;2.75;1.45;;;;;;;;;;4920984;29;20052;-84
2021/01/25 08:37:27;;;;;;;2.47;1.40;;;;;;;;;;4920217;29;20048;-84
2021/01/25 08:39:53;;;;;;;3.95;1.70;;;;;;;;;;4935365;29;20064;-84
2021/01/25 08:42:22;;;;;;;3.83;2.20;;;;;;;;;;4930317;29;20060;-84
2021/01/25 08:44:49;;;;;;;5.03;1.98;;;;;;;;;;4921165;29;20048;-84
2021/01/25 08:47:18;;;;;;;2.70;1.45;;;;;;;;;;4919947;29;20052;-84
2021/01/25 08:49:45;;;;;;;3.03;1.48;;;;;;;;;;4919914;29;20052;-85
2021/01/25 08:52:25;;;;;;;2.70;1.30;;;;;;;;;;4924299;29;20051;-85
2021/01/25 08:54:52;;;;;;;2.72;1.60;;;;;;;;;;4932219;29;20426;-85
2021/01/25 08:57:19;;;;;;;4.13;1.40;;;;;;;;;;4920835;29;20056;-84
2021/01/25 08:59:45;;;;;;;5.00;1.65;;;;;;;;;;4920905;29;20044;-84
2021/01/25 09:02:23;;;;;;;3.70;1.45;;;;;;;;;;4920683;29;20056;-84
2021/01/25 09:04:49;;;;;;;3.17;1.55;;;;;;;;;;4920698;29;20052;-84
2021/01/25 09:07:17;;;;;;;2.83;1.55;;;;;;;;;;4921458;29;20127;-84
2021/01/25 09:09:46;;;;;;;3.15;1.65;;;;;;;;;;4930907;29;20056;-84
2021/01/25 09:12:12;;;;;;;2.88;1.55;;;;;;;;;;4936709;29;20083;-84
2021/01/25 09:14:38;;;;;;;2.72;1.60;;;;;;;;;;4933300;29;20048;-84
2021/01/25 09:17:04;;;;;;;6.07;2.92;;;;;;;;;;4936711;29;20064;-85
2021/01/25 09:19:31;;;;;;;4.40;3.03;;;;;;;;;;4924950;29;20072;-84
2021/01/25 09:21:57;;;;;;;3.35;2.00;;;;;;;;;;4922682;29;20108;-84
2021/01/25 09:24:23;;;;;;;3.95;2.13;;;;;;;;;;4926329;29;20570;-85
2021/01/25 09:26:49;;;;;;;6.63;2.22;;;;;;;;;;4923821;29;20488;-84
2021/01/25 09:29:15;;;;;;;3.75;2.10;;;;;;;;;;4907473;29;20063;-84
2021/01/25 09:31:41;;;;;;;3.95;2.92;;;;;;;;;;4936868;29;20056;-84
2021/01/25 09:34:07;;;;;;;6.00;4.00;;;;;;;;;;4937922;29;20138;-85
2021/01/25 09:36:35;;;;;;;8.35;4.20;;;;;;;;;;4932787;29;20134;-84
2021/01/25 09:39:01;;;;;;;6.28;3.40;;;;;;;;;;4939507;29;20051;-85
2021/01/25 09:41:27;;;;;;;4.90;3.33;;;;;;;;;;4937591;29;20055;-84
2021/01/25 09:43:54;;;;;;;6.47;3.47;;;;;;;;;;4937417;29;20076;-85
2021/01/25 09:46:20;;;;;;;4.20;2.85;;;;;;;;;;4935847;29;20481;-85
2021/01/25 09:48:46;;;;;;;5.88;3.70;;;;;;;;;;4940681;29;20043;-85
2021/01/25 09:51:12;;;;;;;4.22;2.65;;;;;;;;;;4941105;29;20080;-85
2021/01/25 09:53:39;;;;;;;3.42;2.50;;;;;;;;;;4942175;29;20103;-84
2021/01/25 09:56:05;;;;;;;4.15;2.50;;;;;;;;;;4932664;29;20055;-84
2021/01/25 09:58:32;;;;;;;4.55;2.72;;;;;;;;;;4929846;29;20111;-84
2021/01/25 10:00:58;;;;;;;3.72;2.35;;;;;;;;;;4926204;29;20071;-84
2021/01/25 10:03:24;;;;;;;3.65;2.40;;;;;;;;;;4935038;29;20564;-85
2021/01/25 10:05:50;;;;;;;3.97;2.72;;;;;;;;;;4935149;29;20044;-85
2021/01/25 10:08:16;;;;;;;5.93;2.72;;;;;;;;;;4924150;29;20139;-84
2021/01/25 10:10:43;;;;;;;6.78;3.92;;;;;;;;;;4929542;29;20055;-85
2021/01/25 10:13:09;;;;;;;8.70;3.55;;;;;;;;;;4924831;29;20465;-84
2021/01/25 10:15:35;;;;;;;5.32;2.97;;;;;;;;;;4933555;29;20052;-85
2021/01/25 10:18:02;;;;;;;7.15;3.30;;;;;;;;;;4941967;29;20394;-85
2021/01/25 10:20:28;;;;;;;5.53;2.88;;;;;;;;;;4937762;29;20099;-85
2021/01/25 10:22:54;;;;;;;8.15;3.60;;;;;;;;;;4927037;29;20059;-85
2021/01/25 10:25:20;;;;;;;4.65;3.42;;;;;;;;;;4936940;29;20453;-85
2021/01/25 10:27:47;;;;;;;5.40;3.35;;;;;;;;;;4928599;29;20059;-85
2021/01/25 10:30:16;;;;;;;6.07;3.30;;;;;;;;;;4922551;29;20078;-85
2021/01/25 10:32:42;;;;;;;5.90;3.78;;;;;;;;;;4929304;29;20055;-85
2021/01/25 10:35:09;;;;;;;4.07;3.00;;;;;;;;;;4935372;29;20525;-86
2021/01/25 10:37:35;;;;;;;4.13;3.22;;;;;;;;;;4933311;29;20051;-85
2021/01/25 10:40:01;;;;;;;5.65;3.22;;;;;;;;;;4922059;29;20048;-85
2021/01/25 10:42:28;;;;;;;4.78;3.50;;;;;;;;;;4932945;29;20051;-85
2021/01/25 10:44:55;;;;;;;5.90;3.60;;;;;;;;;;4932649;29;20051;-85
2021/01/25 10:47:21;;;;;;;7.03;4.13;;;;;;;;;;4937160;29;20080;-85
2021/01/25 10:49:48;;;;;;;8.75;5.38;;;;;;;;;;4941671;29;20072;-85
2021/01/25 10:52:14;;;;;;;6.38;4.57;;;;;;;;;;4940935;29;20067;-85
2021/01/25 10:54:40;;;;;;;5.57;4.38;;;;;;;;;;4938250;29;20106;-85
2021/01/25 10:57:07;;;;;;;6.80;4.80;;;;;;;;;;4937701;29;20119;-85
2021/01/25 10:59:33;;;;;;;5.55;4.07;;;;;;;;;;4936746;29;20060;-85
2021/01/25 11:02:00;;;;;;;7.60;5.45;;;;;;;;;;4927435;29;20060;-85
2021/01/25 11:04:26;;;;;;;8.63;6.18;;;;;;;;;;4919564;29;20091;-85
2021/01/25 11:06:52;;;;;;;12.05;7.25;;;;;;;;;;4922281;29;20391;-84
2021/01/25 11:09:18;;;;;;;11.10;6.32;;;;;;;;;;4921689;29;20063;-84
2021/01/25 11:11:45;;;;;;;7.30;5.55;;;;;;;;;;4920208;29;20059;-85
2021/01/25 11:14:11;;;;;;;7.45;5.55;;;;;;;;;;4920406;29;20056;-84
2021/01/25 11:16:37;;;;;;;9.00;5.35;;;;;;;;;;4920037;29;20077;-84
2021/01/25 11:19:04;;;;;;;6.05;5.00;;;;;;;;;;4923947;29;20135;-84
2021/01/25 11:21:30;;;;;;;9.23;5.43;;;;;;;;;;4919826;29;20044;-84
2021/01/25 11:23:56;;;;;;;6.15;4.75;;;;;;;;;;4922852;29;20126;-84
2021/01/25 11:26:25;;;;;;;6.35;4.80;;;;;;;;;;4920366;29;20059;-83
2021/01/25 11:28:51;;;;;;;7.60;5.43;;;;;;;;;;4923419;29;20058;-83
2021/01/25 11:31:17;;;;;;;6.22;4.65;;;;;;;;;;4921276;29;20047;-83
2021/01/25 11:33:43;;;;;;;5.90;4.78;;;;;;;;;;4923629;29;20048;-83
2021/01/25 11:36:10;;;;;;;7.25;5.28;;;;;;;;;;4921418;29;20052;-84
2021/01/25 11:38:36;;;;;;;7.80;4.80;;;;;;;;;;4920487;29;20047;-84
2021/01/25 11:41:02;;;;;;;7.80;4.75;;;;;;;;;;4927776;29;20060;-83
2021/01/25 11:43:28;;;;;;;6.50;4.43;;;;;;;;;;4921191;29;20052;-84
2021/01/25 11:45:54;;;;;;;6.60;4.65;;;;;;;;;;4920520;29;20058;-83
2021/01/25 11:48:21;;;;;;;7.35;5.05;;;;;;;;;;4920225;29;20047;-83
2021/01/25 11:50:47;;;;;;;9.88;5.55;;;;;;;;;;4928519;29;20055;-84
2021/01/25 11:53:15;;;;;;;7.63;5.53;;;;;;;;;;4924132;29;20048;-84
2021/01/25 11:55:41;;;;;;;8.68;6.53;;;;;;;;;;4925431;29;20085;-84
2021/01/25 11:58:08;;;;;;;8.02;5.70;;;;;;;;;;4925295;29;20461;-83
2021/01/25 12:00:33;;;;;;;8.30;5.70;;;;;;;;;;4920122;29;20413;-84
2021/01/25 12:02:59;;;;;;;5.70;4.53;;;;;;;;;;4920366;29;20067;-84
2021/01/25 12:05:25;;;;;;;7.43;5.43;;;;;;;;;;4925127;29;20055;-84
2021/01/25 12:07:51;;;;;;;6.35;4.68;;;;;;;;;;4922938;29;20052;-84
2021/01/25 12:10:18;;;;;;;6.88;5.22;;;;;;;;;;4922405;29;20644;-83
2021/01/25 12:12:44;;;;;;;6.93;5.07;;;;;;;;;;4920903;29;20130;-84
2021/01/25 12:15:11;;;;;;;7.95;5.55;;;;;;;;;;4922740;29;20076;-83
2021/01/25 12:17:37;;;;;;;8.13;5.35;;;;;;;;;;4925221;29;20056;-84
2021/01/25 12:20:04;;;;;;;9.63;6.25;;;;;;;;;;4920534;29;20056;-85
2021/01/25 12:22:30;;;;;;;8.57;6.78;;;;;;;;;;4922033;29;20057;-85
2021/01/25 12:24:56;;;;;;;8.70;5.70;;;;;;;;;;4920986;29;20055;-85
2021/01/25 12:27:23;;;;;;;8.38;5.65;;;;;;;;;;4920950;29;20048;-85
2021/01/25 12:29:49;;;;;;;7.70;5.78;;;;;;;;;;4922715;29;20115;-85
2021/01/25 12:32:15;;;;;;;6.28;5.25;;;;;;;;;;4919834;29;20044;-84
2021/01/25 12:34:42;;;;;;;7.53;5.80;;;;;;;;;;4920514;29;20401;-84
2021/01/25 12:37:08;;;;;;;8.20;6.03;;;;;;;;;;4922420;29;20059;-85
2021/01/25 12:39:34;;;;;;;7.70;6.07;;;;;;;;;;4923672;29;20617;-86
2021/01/25 12:42:00;;;;;;;8.55;6.20;;;;;;;;;;4922074;29;20060;-84
2021/01/25 12:44:27;;;;;;;7.93;6.43;;;;;;;;;;4934271;29;20040;-85
2021/01/25 12:46:55;;;;;;;8.68;6.30;;;;;;;;;;4920413;29;20042;-85
2021/01/25 12:49:21;;;;;;;11.80;7.30;;;;;;;;;;4924092;29;20047;-85
2021/01/25 12:51:47;;;;;;;9.93;8.10;;;;;;;;;;4926946;29;20056;-85
2021/01/25 12:54:14;;;;;;;9.57;7.35;;;;;;;;;;4921228;29;20498;-85
2021/01/25 12:56:40;;;;;;;8.80;6.30;;;;;;;;;;4924197;29;20048;-85
2021/01/25 12:59:06;;;;;;;9.50;6.13;;;;;;;;;;4922893;29;20048;-85
2021/01/25 13:01:33;;;;;;;7.93;5.50;;;;;;;;;;4925118;29;20421;-85
2021/01/25 13:03:59;;;;;;;8.18;5.57;;;;;;;;;;4923320;29;20048;-85
2021/01/25 13:06:25;;;;;;;8.20;5.65;;;;;;;;;;4923054;29;20059;-85
2021/01/25 13:08:51;;;;;;;7.80;5.47;;;;;;;;;;4924119;29;20056;-85
2021/01/25 13:11:17;;;;;;;6.50;5.07;;;;;;;;;;4923560;29;20063;-84
2021/01/25 13:13:43;;;;;;;5.97;4.68;;;;;;;;;;4923965;29;20382;-85
2021/01/25 13:16:09;;;;;;;9.57;5.65;;;;;;;;;;4923095;29;20044;-85
2021/01/25 13:18:35;;;;;;;7.88;5.43;;;;;;;;;;4922847;29;20520;-84
2021/01/25 13:21:03;;;;;;;7.13;4.65;;;;;;;;;;4920528;29;20489;-84
2021/01/25 13:23:29;;;;;;;7.57;4.75;;;;;;;;;;4933812;29;20048;-84
2021/01/25 13:25:54;;;;;;;7.43;5.22;;;;;;;;;;4929213;29;20088;-84
2021/01/25 13:28:20;;;;;;;8.23;4.75;;;;;;;;;;4927767;29;20070;-85
2021/01/25 13:30:46;;;;;;;7.50;4.88;;;;;;;;;;4931239;29;20095;-85
2021/01/25 13:33:12;;;;;;;6.57;4.82;;;;;;;;;;4924603;29;20530;-85
2021/01/25 13:35:39;;;;;;;6.03;4.63;;;;;;;;;;4923398;29;20405;-85
2021/01/25 13:38:05;;;;;;;6.55;4.57;;;;;;;;;;4924080;29;20043;-85
2021/01/25 13:40:32;;;;;;;7.95;5.00;;;;;;;;;;4926596;29;20052;-84
2021/01/25 13:42:58;;;;;;;7.10;4.45;;;;;;;;;;4923912;29;20052;-85
2021/01/25 13:45:26;;;;;;;6.07;4.80;;;;;;;;;;4931080;29;20486;-85
2021/01/25 13:47:52;;;;;;;6.50;4.40;;;;;;;;;;4925806;29;20047;-85
2021/01/25 13:50:20;;;;;;;6.13;4.15;;;;;;;;;;4931797;29;20095;-85
2021/01/25 13:52:47;;;;;;;8.25;4.72;;;;;;;;;;4935106;29;20044;-85
2021/01/25 13:55:14;;;;;;;8.45;4.97;;;;;;;;;;4923338;29;20059;-85
2021/01/25 13:57:40;;;;;;;6.75;4.70;;;;;;;;;;4919381;29;20064;-85
2021/01/25 14:00:09;;;;;;;6.07;4.38;;;;;;;;;;4922838;29;20491;-86
2021/01/25 14:02:35;;;;;;;6.93;4.75;;;;;;;;;;4923225;29;20450;-85
2021/01/25 14:05:01;;;;;;;9.00;5.25;;;;;;;;;;4923431;29;20051;-85
2021/01/25 14:07:27;;;;;;;10.73;5.53;;;;;;;;;;4921511;29;20063;-85
2021/01/25 14:09:56;;;;;;;7.60;5.47;;;;;;;;;;4924589;29;20056;-86
2021/01/25 14:12:22;;;;;;;7.57;5.47;;;;;;;;;;4906636;29;20079;-86
2021/01/25 14:14:48;;;;;;;8.13;5.95;;;;;;;;;;4923897;29;20051;-86
2021/01/25 14:17:14;;;;;;;7.30;5.10;;;;;;;;;;4923593;29;20060;-85
2021/01/25 14:19:40;;;;;;;6.90;4.90;;;;;;;;;;4922766;29;20079;-85
2021/01/25 14:22:07;;;;;;;5.75;4.70;;;;;;;;;;4923731;29;20044;-86
2021/01/25 14:24:33;;;;;;;7.53;4.55;;;;;;;;;;4923354;29;20044;-86
2021/01/25 14:27:00;;;;;;;6.75;4.38;;;;;;;;;;4922425;29;20489;-85
2021/01/25 14:29:29;;;;;;;6.18;4.43;;;;;;;;;;4925026;29;20074;-85
2021/01/25 14:31:55;;;;;;;7.97;4.90;;;;;;;;;;4925464;29;20054;-86
2021/01/25 14:34:21;;;;;;;9.20;6.40;;;;;;;;;;4922494;29;20052;-85
2021/01/25 14:36:48;;;;;;;8.30;6.03;;;;;;;;;;4921111;29;20052;-85
2021/01/25 14:39:19;;;;;;;9.13;4.80;;;;;;;;;;4921669;29;20048;-85
2021/01/25 14:44:26;;;;;;;3.53;2.38;;;;;;;;;;5127319;23;20094;-83